createdAt,value
2023-05-06T00:01:33.688Z,100359.78
2023-05-06T00:04:04.291Z,100359.08
2023-05-06T00:06:34.947Z,100358.20
2023-05-06T00:09:05.461Z,100352.52
2023-05-06T00:11:36.039Z,100352.15
2023-05-06T00:14:06.576Z,100350.77
2023-05-06T00:16:37.820Z,100342.65
2023-05-06T00:19:08.723Z,100333.15
2023-05-06T00:21:39.259Z,100324.71
2023-05-06T00:24:09.947Z,100324.73
2023-05-06T00:26:40.449Z,100320.91
2023-05-06T00:29:10.923Z,100329.36
2023-05-06T00:31:41.816Z,100329.35
2023-05-06T00:34:12.454Z,100333.98
2023-05-06T00:36:43.427Z,100332.09
2023-05-06T00:39:14.005Z,100332.61
2023-05-06T00:41:44.454Z,100333.81
2023-05-06T00:44:15.254Z,100328.45
2023-05-06T00:46:46.396Z,100324.48
2023-05-06T00:49:17.761Z,100324.81
2023-05-06T00:51:48.728Z,100324.99
2023-05-06T00:54:19.718Z,100321.71
2023-05-06T00:56:50.426Z,100316.87
2023-05-06T00:59:21.280Z,100311.34
2023-05-06T01:01:54.053Z,100314.59
2023-05-06T01:04:25.169Z,100316.83
2023-05-06T01:07:02.133Z,100317.52
2023-05-06T01:09:40.628Z,100312.83
2023-05-06T01:12:30.581Z,100316.27
2023-05-06T01:15:08.836Z,100320.58
2023-05-06T01:17:47.447Z,100319.71
2023-05-06T01:20:21.000Z,100320.39
2023-05-06T01:22:52.333Z,100320.73
2023-05-06T01:25:24.374Z,100326.27
2023-05-06T01:27:54.855Z,100328.98
2023-05-06T01:30:28.883Z,100336.38
2023-05-06T01:33:08.664Z,100336.36
2023-05-06T01:35:47.578Z,100337.21
2023-05-06T01:38:24.354Z,100333.42
2023-05-06T01:40:58.972Z,100331.36
2023-05-06T01:43:36.054Z,100329.98
2023-05-06T01:46:07.972Z,100325.31
2023-05-06T01:48:41.010Z,100314.79
2023-05-06T01:51:11.514Z,100309.95
2023-05-06T01:53:41.968Z,100303.93
2023-05-06T01:56:12.543Z,100302.20
2023-05-06T01:58:43.000Z,100299.24
2023-05-06T02:01:13.518Z,100296.85
2023-05-06T02:03:44.113Z,100293.73
2023-05-06T02:06:14.791Z,100297.00
2023-05-06T02:08:45.565Z,100297.02
2023-05-06T02:11:21.230Z,100300.27
2023-05-06T02:13:53.331Z,100303.35
2023-05-06T02:16:23.937Z,100303.34
2023-05-06T02:18:55.052Z,100300.23
2023-05-06T02:21:26.488Z,100298.67
2023-05-06T02:23:56.972Z,100292.98
2023-05-06T02:26:27.577Z,100294.89
2023-05-06T02:28:58.170Z,100296.61
2023-05-06T02:31:28.693Z,100300.22
2023-05-06T02:33:59.151Z,100296.41
2023-05-06T02:36:29.796Z,100302.27
2023-05-06T02:39:00.250Z,100301.04
2023-05-06T02:41:31.661Z,100302.24
2023-05-06T02:44:02.089Z,100297.06
2023-05-06T02:46:32.599Z,100293.45
2023-05-06T02:49:03.351Z,100291.21
2023-05-06T02:51:33.808Z,100295.17
2023-05-06T02:54:04.463Z,100293.97
2023-05-06T02:56:35.248Z,100297.73
2023-05-06T02:59:05.779Z,100307.38
2023-05-06T03:01:36.358Z,100318.39
2023-05-06T03:04:07.120Z,100332.48
2023-05-06T03:06:37.646Z,100331.10
2023-05-06T03:09:08.762Z,100325.75
2023-05-06T03:11:39.866Z,100328.69
2023-05-06T03:14:10.406Z,100335.39
2023-05-06T03:16:40.909Z,100337.63
2023-05-06T03:19:11.626Z,100340.91
2023-05-06T03:21:42.640Z,100340.91
2023-05-06T03:24:13.274Z,100340.38
2023-05-06T03:26:43.735Z,100343.45
2023-05-06T03:29:15.830Z,100346.89
2023-05-06T03:31:46.733Z,100349.63
2023-05-06T03:34:17.702Z,100351.67
2023-05-06T03:36:48.686Z,100349.95
2023-05-06T03:39:19.461Z,100344.27
2023-05-06T03:41:50.066Z,100339.10
2023-05-06T03:44:21.679Z,100334.80
2023-05-06T03:46:52.154Z,100336.70
2023-05-06T03:49:22.731Z,100332.89
2023-05-06T03:51:53.616Z,100329.58
2023-05-06T03:54:24.793Z,100329.91
2023-05-06T03:56:55.386Z,100330.24
2023-05-06T03:59:26.021Z,100322.84
2023-05-06T04:01:57.006Z,100322.15
2023-05-06T04:04:28.347Z,100321.09
2023-05-06T04:06:58.047Z,100327.62
2023-05-06T04:09:28.502Z,100327.94
2023-05-06T04:11:59.347Z,100329.64
2023-05-06T04:14:30.407Z,100330.15
2023-05-06T04:17:01.060Z,100325.52
2023-05-06T04:19:32.170Z,100323.62
2023-05-06T04:22:02.651Z,100321.55
2023-05-06T04:24:33.957Z,100309.85
2023-05-06T04:27:05.890Z,100298.33
2023-05-06T04:29:36.496Z,100288.85
2023-05-06T04:32:07.813Z,100281.45
2023-05-06T04:34:37.401Z,100276.27
2023-05-06T04:37:08.594Z,100267.45
2023-05-06T04:39:47.255Z,100260.23
2023-05-06T04:42:18.197Z,100249.04
2023-05-06T04:45:08.702Z,100239.21
2023-05-06T04:47:40.366Z,100229.23
2023-05-06T04:50:13.014Z,100220.30
2023-05-06T04:52:44.769Z,100216.16
2023-05-06T04:55:16.235Z,100205.32
2023-05-06T04:57:50.850Z,100198.73
2023-05-06T05:00:22.350Z,100206.79
2023-05-06T05:02:52.930Z,100237.73
2023-05-06T05:05:23.564Z,100286.42
2023-05-06T05:07:55.220Z,100293.13
2023-05-06T05:10:25.850Z,100295.19
2023-05-06T05:12:56.785Z,100302.94
2023-05-06T05:15:27.831Z,100297.75
2023-05-06T05:17:58.912Z,100294.80
2023-05-06T05:20:30.145Z,100304.94
2023-05-06T05:23:03.059Z,100297.85
2023-05-06T05:25:34.556Z,100291.64
2023-05-06T05:28:05.188Z,100285.80
2023-05-06T05:30:36.543Z,100283.58
2023-05-06T05:33:07.245Z,100289.92
2023-05-06T05:35:38.061Z,100288.20
2023-05-06T05:38:10.038Z,100290.59
2023-05-06T05:40:42.170Z,100293.84
2023-05-06T05:43:13.077Z,100299.87
2023-05-06T05:45:44.423Z,100301.23
2023-05-06T05:48:15.190Z,100304.33
2023-05-06T05:50:46.023Z,100297.77
2023-05-06T05:53:17.376Z,100295.69
2023-05-06T05:55:48.361Z,100292.77
2023-05-06T05:58:19.550Z,100290.70
2023-05-06T06:00:50.708Z,100292.91
2023-05-06T06:03:21.751Z,100300.12
2023-05-06T06:05:55.392Z,100302.36
2023-05-06T06:08:27.687Z,100305.48
2023-05-06T06:10:59.039Z,100303.61
2023-05-06T06:13:34.149Z,100306.56
2023-05-06T06:16:04.780Z,100303.48
2023-05-06T06:18:37.044Z,100294.02
2023-05-06T06:21:07.894Z,100291.64
2023-05-06T06:23:38.716Z,100286.81
2023-05-06T06:26:10.968Z,100289.41
2023-05-06T06:28:44.631Z,100282.89
2023-05-06T06:31:15.389Z,100280.98
2023-05-06T06:33:45.911Z,100287.88
2023-05-06T06:36:16.578Z,100295.95
2023-05-06T06:38:46.997Z,100302.64
2023-05-06T06:41:17.692Z,100299.69
2023-05-06T06:43:48.147Z,100302.09
2023-05-06T06:46:22.886Z,100296.23
2023-05-06T06:48:53.438Z,100299.50
2023-05-06T06:51:24.104Z,100296.60
2023-05-06T06:53:55.253Z,100303.86
2023-05-06T06:56:25.896Z,100303.33
2023-05-06T06:58:56.320Z,100308.97
2023-05-06T07:01:26.807Z,100312.38
2023-05-06T07:03:57.297Z,100315.62
2023-05-06T07:06:27.781Z,100314.20
2023-05-06T07:08:58.279Z,100310.21
2023-05-06T07:11:28.837Z,100308.98
2023-05-06T07:14:00.001Z,100311.75
2023-05-06T07:16:30.480Z,100300.70
2023-05-06T07:19:01.093Z,100296.04
2023-05-06T07:21:32.516Z,100292.58
2023-05-06T07:24:03.124Z,100295.99
2023-05-06T07:26:36.176Z,100292.02
2023-05-06T07:29:06.905Z,100282.35
2023-05-06T07:31:37.494Z,100275.45
2023-05-06T07:34:08.766Z,100269.94
2023-05-06T07:36:43.173Z,100272.14
2023-05-06T07:39:15.844Z,100269.52
2023-05-06T07:41:46.593Z,100265.41
2023-05-06T07:44:17.037Z,100267.80
2023-05-06T07:46:47.867Z,100255.73
2023-05-06T07:49:18.457Z,100250.73
2023-05-06T07:51:48.972Z,100247.44
2023-05-06T07:54:19.456Z,100239.85
2023-05-06T07:56:49.925Z,100233.47
2023-05-06T07:59:20.425Z,100235.85
2023-05-06T08:01:50.892Z,100233.26
2023-05-06T08:04:21.593Z,100223.29
2023-05-06T08:06:52.155Z,100218.63
2023-05-06T08:09:23.324Z,100206.74
2023-05-06T08:11:54.204Z,100206.04
2023-05-06T08:14:26.054Z,100217.88
2023-05-06T08:16:55.235Z,100234.38
2023-05-06T08:19:26.569Z,100257.72
2023-05-06T08:21:57.200Z,100284.18
2023-05-06T08:24:27.837Z,100295.52
2023-05-06T08:26:58.355Z,100305.98
2023-05-06T08:29:28.800Z,100319.34
2023-05-06T08:31:59.310Z,100328.92
2023-05-06T08:34:29.861Z,100337.48
2023-05-06T08:37:00.346Z,100343.10
2023-05-06T08:39:30.892Z,100341.84
2023-05-06T08:42:02.996Z,100326.19
2023-05-06T08:44:33.716Z,100316.39
2023-05-06T08:47:04.476Z,100312.45
2023-05-06T08:49:35.220Z,100312.35
2023-05-06T08:52:07.613Z,100311.88
2023-05-06T08:54:39.069Z,100308.98
2023-05-06T08:57:12.596Z,100306.30
2023-05-06T08:59:45.154Z,100300.66
2023-05-06T09:02:15.799Z,100291.05
2023-05-06T09:04:48.087Z,100279.08
2023-05-06T09:07:18.643Z,100280.17
2023-05-06T09:09:49.511Z,100277.11
2023-05-06T09:12:20.050Z,100267.02
2023-05-06T09:14:52.506Z,100259.15
2023-05-06T09:17:26.680Z,100265.35
2023-05-06T09:19:58.909Z,100275.01
2023-05-06T09:22:29.105Z,100281.55
2023-05-06T09:25:00.434Z,100285.28
2023-05-06T09:27:33.108Z,100294.39
2023-05-06T09:30:06.154Z,100290.77
2023-05-06T09:32:39.994Z,100289.73
2023-05-06T09:35:12.699Z,100291.13
2023-05-06T09:37:45.916Z,100293.87
2023-05-06T09:40:17.015Z,100292.30
2023-05-06T09:42:51.668Z,100296.41
2023-05-06T09:45:24.343Z,100293.65
2023-05-06T09:47:55.737Z,100287.45
2023-05-06T09:50:27.143Z,100288.30
2023-05-06T09:52:59.695Z,100286.60
2023-05-06T09:55:31.387Z,100284.89
2023-05-06T09:58:04.768Z,100283.52
2023-05-06T10:00:36.225Z,100285.23
2023-05-06T10:03:07.705Z,100284.53
2023-05-06T10:05:40.992Z,100284.17
2023-05-06T10:08:13.236Z,100281.59
2023-05-06T10:10:45.142Z,100278.98
2023-05-06T10:13:14.692Z,100275.36
2023-05-06T10:15:46.604Z,100271.21
2023-05-06T10:18:16.676Z,100269.15
2023-05-06T10:20:48.973Z,100269.86
2023-05-06T10:23:27.037Z,100268.49
2023-05-06T10:26:02.414Z,100269.91
2023-05-06T10:28:33.770Z,100270.30
2023-05-06T10:31:08.637Z,100274.97
2023-05-06T10:33:40.974Z,100275.48
2023-05-06T10:36:20.505Z,100276.23
2023-05-06T10:38:56.411Z,100279.00
2023-05-06T10:41:29.036Z,100278.48
2023-05-06T10:44:00.357Z,100278.66
2023-05-06T10:46:32.849Z,100283.31
2023-05-06T10:49:20.890Z,100280.89
2023-05-06T10:52:13.404Z,100286.38
2023-05-06T10:54:53.925Z,100284.97
2023-05-06T10:57:27.343Z,100283.77
2023-05-06T10:59:58.444Z,100283.24
2023-05-06T11:02:32.753Z,100284.09
2023-05-06T11:05:05.824Z,100282.55
2023-05-06T11:07:36.837Z,100279.45
2023-05-06T11:10:12.053Z,100282.21
2023-05-06T11:12:50.318Z,100284.61
2023-05-06T11:15:41.362Z,100279.31
2023-05-06T11:18:45.142Z,100275.71
2023-05-06T11:21:38.856Z,100278.66
2023-05-06T11:24:22.950Z,100280.39
2023-05-06T11:26:53.966Z,100276.45
2023-05-06T11:29:25.029Z,100280.27
2023-05-06T11:31:55.861Z,100279.30
2023-05-06T11:34:28.967Z,100275.89
2023-05-06T11:37:02.559Z,100278.36
2023-05-06T11:39:39.817Z,100281.14
2023-05-06T11:42:11.866Z,100284.77
2023-05-06T11:44:42.441Z,100286.34
2023-05-06T11:47:12.910Z,100288.77
2023-05-06T11:49:44.446Z,100291.56
2023-05-06T11:52:15.923Z,100294.99
2023-05-06T11:54:47.476Z,100300.36
2023-05-06T11:57:20.773Z,100299.35
2023-05-06T11:59:56.220Z,100298.67
2023-05-06T12:02:26.785Z,100300.40
2023-05-06T12:04:58.496Z,100301.95
2023-05-06T12:07:29.304Z,100299.37
2023-05-06T12:10:04.031Z,100305.02
2023-05-06T12:12:34.898Z,100308.29
2023-05-06T12:15:05.969Z,100311.20
2023-05-06T12:17:36.770Z,100314.63
2023-05-06T12:20:11.607Z,100312.90
2023-05-06T12:22:42.975Z,100311.69
2023-05-06T12:25:18.325Z,100308.41
2023-05-06T12:27:48.775Z,100309.13
2023-05-06T12:30:32.353Z,100315.36
2023-05-06T12:33:03.838Z,100320.73
2023-05-06T12:35:34.978Z,100320.02
2023-05-06T12:38:12.812Z,100320.39
2023-05-06T12:40:47.037Z,100324.36
2023-05-06T12:43:17.816Z,100320.24
2023-05-06T12:46:05.769Z,100319.73
2023-05-06T12:48:36.473Z,100316.98
2023-05-06T12:51:21.906Z,100315.77
2023-05-06T12:53:52.518Z,100315.08
2023-05-06T12:56:23.691Z,100317.48
2023-05-06T12:59:04.386Z,100317.99
2023-05-06T13:01:35.584Z,100316.13
2023-05-06T13:04:06.537Z,100318.36
2023-05-06T13:06:37.001Z,100313.23
2023-05-06T13:09:07.661Z,100311.84
2023-05-06T13:11:38.194Z,100310.98
2023-05-06T13:14:09.133Z,100311.50
2023-05-06T13:16:40.318Z,100313.58
2023-05-06T13:19:21.187Z,100314.45
2023-05-06T13:21:55.651Z,100318.42
2023-05-06T13:24:26.524Z,100316.39
2023-05-06T13:27:00.626Z,100317.26
2023-05-06T13:29:33.120Z,100318.32
2023-05-06T13:32:05.730Z,100314.92
2023-05-06T13:34:37.655Z,100312.69
2023-05-06T13:37:08.153Z,100310.96
2023-05-06T13:39:38.903Z,100312.52
2023-05-06T13:42:09.437Z,100312.18
2023-05-06T13:44:39.947Z,100309.64
2023-05-06T13:47:10.424Z,100308.61
2023-05-06T13:49:40.879Z,100306.20
2023-05-06T13:52:11.360Z,100305.35
2023-05-06T13:54:41.860Z,100304.34
2023-05-06T13:57:12.322Z,100308.64
2023-05-06T13:59:42.764Z,100312.27
2023-05-06T14:02:13.784Z,100308.98
2023-05-06T14:04:45.534Z,100312.25
2023-05-06T14:07:16.076Z,100311.68
2023-05-06T14:09:46.529Z,100314.23
2023-05-06T14:12:17.329Z,100319.38
2023-05-06T14:14:47.977Z,100321.59
2023-05-06T14:17:18.909Z,100313.81
2023-05-06T14:19:49.348Z,100315.35
2023-05-06T14:22:19.862Z,100317.94
2023-05-06T14:24:50.379Z,100317.25
2023-05-06T14:27:20.917Z,100318.46
2023-05-06T14:29:51.968Z,100323.80
2023-05-06T14:32:22.496Z,100324.48
2023-05-06T14:34:52.991Z,100319.16
2023-05-06T14:37:23.461Z,100320.19
2023-05-06T14:39:54.295Z,100324.32
2023-05-06T14:42:24.744Z,100317.09
2023-05-06T14:44:55.238Z,100324.84
2023-05-06T14:47:26.433Z,100322.60
2023-05-06T14:49:56.907Z,100324.14
2023-05-06T14:52:27.411Z,100324.65
2023-05-06T14:54:57.871Z,100328.06
2023-05-06T14:57:28.337Z,100331.15
2023-05-06T14:59:58.867Z,100338.73
2023-05-06T15:02:29.477Z,100340.78
2023-05-06T15:05:02.358Z,100346.42
2023-05-06T15:07:34.463Z,100347.27
2023-05-06T15:10:05.254Z,100348.80
2023-05-06T15:12:36.408Z,100349.98
2023-05-06T15:15:09.391Z,100351.01
2023-05-06T15:17:41.866Z,100348.59
2023-05-06T15:20:14.488Z,100348.90
2023-05-06T15:22:44.968Z,100347.98
2023-05-06T15:25:22.730Z,100350.88
2023-05-06T15:28:04.869Z,100351.67
2023-05-06T15:30:35.570Z,100351.98
2023-05-06T15:33:06.319Z,100359.02
2023-05-06T15:35:37.035Z,100361.05
2023-05-06T15:38:07.545Z,100366.88
2023-05-06T15:40:40.302Z,100369.44
2023-05-06T15:43:13.847Z,100366.33
2023-05-06T15:45:50.965Z,100366.65
2023-05-06T15:48:21.475Z,100366.66
2023-05-06T15:50:51.941Z,100363.39
2023-05-06T15:53:22.708Z,100368.69
2023-05-06T15:55:57.293Z,100373.83
2023-05-06T15:58:32.638Z,100372.94
2023-05-06T16:01:03.153Z,100373.45
2023-05-06T16:03:33.776Z,100377.40
2023-05-06T16:06:04.664Z,100373.45
2023-05-06T16:08:35.171Z,100374.48
2023-05-06T16:11:06.075Z,100378.41
2023-05-06T16:13:36.552Z,100377.21
2023-05-06T16:16:07.441Z,100380.48
2023-05-06T16:18:37.956Z,100383.04
2023-05-06T16:21:08.714Z,100384.39
2023-05-06T16:23:39.209Z,100384.54
2023-05-06T16:26:09.723Z,100383.11
2023-05-06T16:28:40.320Z,100381.73
2023-05-06T16:31:11.210Z,100381.86
2023-05-06T16:33:41.816Z,100379.63
2023-05-06T16:36:12.907Z,100381.13
2023-05-06T16:38:43.410Z,100380.59
2023-05-06T16:41:13.844Z,100382.11
2023-05-06T16:43:44.329Z,100383.29
2023-05-06T16:46:14.801Z,100380.17
2023-05-06T16:48:45.317Z,100380.01
2023-05-06T16:51:16.453Z,100384.83
2023-05-06T16:53:47.727Z,100384.48
2023-05-06T16:56:18.194Z,100389.31
2023-05-06T16:58:48.685Z,100390.90
2023-05-06T17:01:19.183Z,100397.09
2023-05-06T17:03:49.756Z,100399.98
2023-05-06T17:06:20.260Z,100402.21
2023-05-06T17:08:50.700Z,100403.42
2023-05-06T17:11:21.205Z,100408.73
2023-05-06T17:13:52.996Z,100407.33
2023-05-06T17:16:23.572Z,100409.67
2023-05-06T17:18:54.054Z,100410.98
2023-05-06T17:21:25.013Z,100411.08
2023-05-06T17:23:55.983Z,100411.34
2023-05-06T17:26:26.524Z,100407.85
2023-05-06T17:28:57.336Z,100405.91
2023-05-06T17:31:28.233Z,100411.45
2023-05-06T17:33:58.906Z,100411.83
2023-05-06T17:36:29.508Z,100412.87
2023-05-06T17:39:06.099Z,100418.73
2023-05-06T17:41:36.750Z,100417.35
2023-05-06T17:44:07.700Z,100424.05
2023-05-06T17:46:38.249Z,100424.92
2023-05-06T17:49:08.926Z,100428.69
2023-05-06T17:51:40.917Z,100427.31
2023-05-06T17:54:11.402Z,100430.40
2023-05-06T17:56:49.224Z,100434.19
2023-05-06T17:59:21.115Z,100434.17
2023-05-06T18:01:51.577Z,100435.70
2023-05-06T18:04:22.075Z,100434.64
2023-05-06T18:06:52.539Z,100433.77
2023-05-06T18:09:23.025Z,100438.53
2023-05-06T18:11:53.689Z,100444.88
2023-05-06T18:14:24.165Z,100448.52
2023-05-06T18:16:54.592Z,100452.66
2023-05-06T18:19:25.038Z,100454.38
2023-05-06T18:21:56.296Z,100455.39
2023-05-06T18:24:26.795Z,100457.93
2023-05-06T18:26:58.264Z,100455.67
2023-05-06T18:29:30.406Z,100462.88
2023-05-06T18:32:02.604Z,100465.30
2023-05-06T18:34:33.205Z,100470.78
2023-05-06T18:37:04.658Z,100473.31
2023-05-06T18:39:35.246Z,100475.52
2023-05-06T18:42:05.898Z,100481.16
2023-05-06T18:44:36.397Z,100479.75
2023-05-06T18:47:07.065Z,100482.85
2023-05-06T18:49:37.953Z,100486.96
2023-05-06T18:52:08.450Z,100490.73
2023-05-06T18:54:39.612Z,100494.10
2023-05-06T18:57:10.484Z,100494.10
2023-05-06T18:59:41.260Z,100495.30
2023-05-06T19:02:11.816Z,100497.65
2023-05-06T19:04:42.277Z,100499.16
2023-05-06T19:07:16.077Z,100501.70
2023-05-06T19:09:46.758Z,100505.47
2023-05-06T19:12:18.408Z,100507.78
2023-05-06T19:14:48.885Z,100507.84
2023-05-06T19:17:19.514Z,100506.64
2023-05-06T19:19:50.108Z,100511.12
2023-05-06T19:22:20.608Z,100515.26
2023-05-06T19:24:51.048Z,100515.09
2023-05-06T19:27:21.539Z,100516.95
2023-05-06T19:29:52.016Z,100516.09
2023-05-06T19:32:22.516Z,100520.02
2023-05-06T19:34:53.020Z,100529.29
2023-05-06T19:37:23.456Z,100527.37
2023-05-06T19:39:53.872Z,100528.22
2023-05-06T19:42:24.369Z,100529.73
2023-05-06T19:44:54.924Z,100531.92
2023-05-06T19:47:25.408Z,100539.45
2023-05-06T19:49:55.867Z,100539.73
2023-05-06T19:52:30.002Z,100542.09
2023-05-06T19:55:03.259Z,100545.30
2023-05-06T19:57:34.006Z,100546.28
2023-05-06T20:00:09.987Z,100544.54
2023-05-06T20:02:41.296Z,100543.63
2023-05-06T20:05:13.185Z,100544.80
2023-05-06T20:07:42.431Z,100547.52
2023-05-06T20:10:14.222Z,100551.23
2023-05-06T20:12:44.680Z,100549.83
2023-05-06T20:15:15.831Z,100550.29
2023-05-06T20:17:46.283Z,100554.33
2023-05-06T20:20:17.613Z,100554.46
2023-05-06T20:22:48.058Z,100555.66
2023-05-06T20:25:19.724Z,100556.66
2023-05-06T20:27:50.932Z,100556.63
2023-05-06T20:30:21.646Z,100557.58
2023-05-06T20:32:52.299Z,100557.67
2023-05-06T20:35:23.001Z,100559.16
2023-05-06T20:37:54.437Z,100562.73
2023-05-06T20:40:25.096Z,100564.27
2023-05-06T20:42:56.071Z,100566.02
2023-05-06T20:45:27.659Z,100568.30
2023-05-06T20:47:58.232Z,100566.05
2023-05-06T20:50:30.003Z,100563.45
2023-05-06T20:53:01.669Z,100564.69
2023-05-06T20:55:32.289Z,100566.60
2023-05-06T20:58:02.876Z,100569.69
2023-05-06T21:00:33.346Z,100574.50
2023-05-06T21:03:04.096Z,100570.20
2023-05-06T21:05:34.663Z,100573.98
2023-05-06T21:08:05.378Z,100575.17
2023-05-06T21:10:35.845Z,100578.77
2023-05-06T21:13:06.942Z,100579.92
2023-05-06T21:15:38.207Z,100575.95
2023-05-06T21:18:09.205Z,100574.08
2023-05-06T21:20:39.764Z,100572.01
2023-05-06T21:23:10.246Z,100570.96
2023-05-06T21:25:40.769Z,100576.29
2023-05-06T21:28:11.274Z,100581.75
2023-05-06T21:30:41.822Z,100581.57
2023-05-06T21:33:12.272Z,100580.17
2023-05-06T21:35:42.727Z,100581.02
2023-05-06T21:38:14.210Z,100580.98
2023-05-06T21:40:44.657Z,100585.42
2023-05-06T21:43:17.908Z,100584.20
2023-05-06T21:45:48.370Z,100589.83
2023-05-06T21:48:18.809Z,100587.55
2023-05-06T21:50:49.236Z,100587.84
2023-05-06T21:53:19.694Z,100588.81
2023-05-06T21:55:50.121Z,100591.53
2023-05-06T21:58:20.557Z,100589.74
2023-05-06T22:00:52.359Z,100591.27
2023-05-06T22:03:22.936Z,100591.32
2023-05-06T22:05:53.432Z,100596.36
2023-05-06T22:08:25.030Z,100594.33
2023-05-06T22:10:56.679Z,100592.64
2023-05-06T22:13:27.257Z,100596.80
2023-05-06T22:15:57.988Z,100596.84
2023-05-06T22:18:30.219Z,100600.63
2023-05-06T22:21:00.661Z,100598.11
2023-05-06T22:23:31.180Z,100599.44
2023-05-06T22:26:01.655Z,100597.14
2023-05-06T22:28:32.155Z,100598.81
2023-05-06T22:31:03.035Z,100600.84
2023-05-06T22:33:33.757Z,100601.68
2023-05-06T22:36:04.646Z,100602.49
2023-05-06T22:38:35.668Z,100603.13
2023-05-06T22:41:06.152Z,100603.58
2023-05-06T22:43:36.606Z,100603.69
2023-05-06T22:46:07.482Z,100601.95
2023-05-06T22:48:38.057Z,100603.62
2023-05-06T22:51:08.650Z,100607.86
2023-05-06T22:53:39.211Z,100609.04
2023-05-06T22:56:10.356Z,100611.92
2023-05-06T22:58:40.797Z,100613.60
2023-05-06T23:01:12.029Z,100612.88
2023-05-06T23:03:42.635Z,100611.09
2023-05-06T23:06:13.178Z,100612.76
2023-05-06T23:08:43.632Z,100610.85
2023-05-06T23:11:14.082Z,100611.36
2023-05-06T23:13:44.537Z,100612.05
2023-05-06T23:16:15.080Z,100612.91
2023-05-06T23:18:46.474Z,100614.45
2023-05-06T23:21:16.910Z,100614.98
2023-05-06T23:23:47.596Z,100617.71
2023-05-06T23:26:18.136Z,100615.84
2023-05-06T23:28:48.575Z,100617.92
2023-05-06T23:31:19.234Z,100617.41
2023-05-06T23:33:49.746Z,100621.50
2023-05-06T23:36:20.174Z,100627.15
2023-05-06T23:38:51.029Z,100621.46
2023-05-06T23:41:21.428Z,100623.31
2023-05-06T23:43:51.895Z,100624.15
2023-05-06T23:46:22.489Z,100625.17
2023-05-06T23:48:52.947Z,100624.64
2023-05-06T23:51:23.410Z,100626.86
2023-05-06T23:53:53.905Z,100632.33
2023-05-06T23:56:24.309Z,100632.13
2023-05-06T23:58:54.922Z,100628.52
